Sun Valley, Idaho
Current Conditions -  °F | °C
As of 5:47 PM on Friday 28 Nov 2014 (Local Time) from KSUN Reporting Station
Scattered Clouds Scattered Clouds  
Wind Chill: 44°   Ceiling: Unl
Heat Index: 46°   Visibility: 10mi
Dew Point: 21°   Wind: 5mph
Humidity: 37%   Direction: 140°SE
Pressure: 29.74"   Gusts: NA
Location:  43.68°N, 114.33°W
Report Text: KSUN 290047Z 14004KT 10SM SCT090 08/M06 A2974
Loading
Personal Weather Stations






























Interactive Weather Map New forecast layout! Learn more

10-Day Weather Forecast

Advertisements
Track Severe Weather on mobile